createdAt,value
2023-01-17T00:02:21.126Z,4.70
2023-01-17T00:05:06.504Z,4.60
2023-01-17T00:10:23.309Z,4.40
2023-01-17T00:12:56.328Z,4.50
2023-01-17T00:15:23.935Z,4.60
2023-01-17T00:17:51.343Z,4.70
2023-01-17T00:20:39.255Z,4.70
2023-01-17T00:23:26.255Z,4.60
2023-01-17T00:26:05.684Z,4.50
2023-01-17T00:28:38.372Z,4.50
2023-01-17T00:31:06.542Z,4.50
2023-01-17T00:36:01.036Z,4.30
2023-01-17T00:38:30.422Z,4.30
2023-01-17T00:41:12.265Z,4.30
2023-01-17T00:43:57.724Z,4.30
2023-01-17T00:49:29.387Z,4.30
2023-01-17T00:52:14.932Z,4.30
2023-01-17T00:57:46.137Z,4.30
2023-01-17T01:00:31.746Z,4.20
2023-01-17T01:08:48.732Z,4.20
2023-01-17T01:11:37.915Z,4.30
2023-01-17T01:14:24.259Z,4.20
2023-01-17T01:17:09.792Z,4.40
2023-01-17T01:25:27.556Z,4.50
2023-01-17T01:28:21.953Z,4.50
2023-01-17T01:40:56.718Z,4.40
2023-01-17T01:43:50.610Z,4.70
2023-01-17T01:46:23.852Z,4.60
2023-01-17T01:49:03.225Z,4.60
2023-01-17T01:51:33.415Z,4.60
2023-01-17T01:54:07.404Z,4.50
2023-01-17T01:56:34.517Z,4.60
2023-01-17T01:59:04.116Z,4.40
2023-01-17T02:04:02.940Z,4.50
2023-01-17T02:06:37.212Z,4.40
2023-01-17T02:09:08.386Z,4.30
2023-01-17T02:11:37.138Z,4.40
2023-01-17T02:16:50.399Z,4.30
2023-01-17T02:20:07.120Z,4.50
2023-01-17T02:23:11.450Z,4.40
2023-01-17T02:26:10.471Z,4.30
2023-01-17T02:31:35.692Z,4.30
2023-01-17T02:34:24.805Z,4.30
2023-01-17T02:39:43.689Z,4.30
2023-01-17T02:42:16.401Z,4.20
2023-01-17T02:44:44.376Z,4.20
2023-01-17T02:47:20.997Z,4.20
2023-01-17T02:52:56.637Z,4.10
2023-01-17T02:55:42.756Z,4.10
2023-01-17T02:58:26.394Z,4.00
2023-01-17T03:05:57.250Z,4.00
2023-01-17T03:08:25.085Z,4.00
2023-01-17T03:18:15.659Z,4.10
2023-01-17T03:20:42.505Z,3.90
2023-01-17T03:32:57.652Z,4.00
2023-01-17T03:42:45.637Z,4.50
2023-01-17T03:47:39.420Z,4.20
2023-01-17T04:17:11.783Z,4.30
2023-01-17T04:24:32.539Z,4.50
2023-01-17T04:31:53.372Z,4.30
2023-01-17T05:11:06.718Z,3.30
2023-01-17T05:13:33.361Z,3.20
2023-01-17T05:40:33.068Z,3.30
2023-01-17T05:43:01.475Z,3.40
2023-01-17T05:45:29.781Z,3.30
2023-01-17T05:47:58.190Z,3.20
2023-01-17T05:53:02.898Z,3.30
2023-01-17T05:55:31.110Z,3.20
2023-01-17T06:00:25.396Z,3.10
2023-01-17T06:02:56.568Z,3.00
2023-01-17T06:05:24.176Z,3.20
2023-01-17T06:07:51.397Z,3.10
2023-01-17T06:10:19.556Z,2.70
2023-01-17T06:15:15.944Z,2.80
2023-01-17T06:20:11.154Z,2.80
2023-01-17T06:37:20.756Z,2.70
2023-01-17T06:42:14.566Z,2.60
2023-01-17T06:47:08.306Z,2.60
2023-01-17T07:09:12.182Z,2.70
2023-01-17T07:16:34.066Z,2.70
2023-01-17T07:26:22.148Z,2.90
2023-01-17T07:41:04.718Z,3.00
2023-01-17T07:48:28.891Z,2.90
2023-01-17T07:50:57.059Z,2.90
2023-01-17T07:53:26.258Z,2.80
2023-01-17T07:55:53.519Z,3.30
2023-01-17T08:03:17.575Z,2.90
2023-01-17T08:05:52.624Z,2.90
2023-01-17T08:20:35.137Z,3.30
2023-01-17T08:35:19.974Z,3.30
2023-01-17T08:37:47.652Z,3.10
2023-01-17T08:43:00.712Z,3.40
2023-01-17T08:45:28.052Z,3.30
2023-01-17T08:55:17.714Z,3.10
2023-01-17T09:05:06.436Z,3.10
2023-01-17T09:07:33.511Z,2.90
2023-01-17T09:32:04.249Z,2.10
2023-01-17T09:42:29.950Z,3.30
2023-01-17T09:47:43.681Z,3.30
2023-01-17T09:50:26.803Z,3.30
2023-01-17T09:53:01.092Z,3.30
2023-01-17T09:55:38.519Z,3.30
2023-01-17T09:58:12.735Z,3.30
2023-01-17T10:00:46.369Z,3.30
2023-01-17T10:03:43.227Z,3.20
2023-01-17T10:06:35.881Z,3.40
2023-01-17T10:09:23.733Z,3.30
2023-01-17T10:12:15.217Z,3.40
2023-01-17T10:15:02.986Z,3.30
2023-01-17T10:17:54.441Z,3.50
2023-01-17T10:20:49.976Z,3.60
2023-01-17T10:23:33.159Z,3.60
2023-01-17T10:26:17.102Z,3.70
2023-01-17T10:31:23.489Z,3.80
2023-01-17T10:34:03.574Z,3.90
2023-01-17T10:36:35.800Z,3.80
2023-01-17T10:39:12.929Z,3.90
2023-01-17T10:41:46.053Z,3.90
2023-01-17T10:44:35.488Z,3.90
2023-01-17T10:52:03.686Z,4.00
2023-01-17T10:54:54.373Z,4.00
2023-01-17T10:57:26.997Z,4.10
2023-01-17T10:59:58.603Z,4.00
2023-01-17T11:02:32.828Z,4.00
2023-01-17T11:05:05.524Z,4.10
2023-01-17T11:12:30.743Z,4.20
2023-01-17T11:15:17.770Z,4.20
2023-01-17T11:18:00.592Z,4.20
2023-01-17T11:20:35.768Z,4.40
2023-01-17T11:23:21.159Z,4.30
2023-01-17T11:26:00.038Z,4.30
2023-01-17T11:28:41.409Z,4.20
2023-01-17T11:31:16.398Z,4.20
2023-01-17T11:33:45.604Z,4.10
2023-01-17T11:36:21.660Z,4.00
2023-01-17T11:39:17.161Z,3.90
2023-01-17T11:41:45.855Z,3.90
2023-01-17T11:44:32.089Z,3.90
2023-01-17T11:47:12.241Z,4.00
2023-01-17T11:49:41.814Z,4.10
2023-01-17T11:52:24.462Z,4.00
2023-01-17T11:54:54.052Z,4.00
2023-01-17T11:57:33.215Z,4.30
2023-01-17T12:00:19.364Z,4.10
2023-01-17T12:03:06.618Z,4.20
2023-01-17T12:05:59.379Z,4.10
2023-01-17T12:08:41.036Z,4.10
2023-01-17T12:11:18.400Z,3.90
2023-01-17T12:14:03.193Z,4.00
2023-01-17T12:16:51.600Z,4.00
2023-01-17T12:19:32.159Z,3.90
2023-01-17T12:22:22.978Z,3.90
2023-01-17T12:25:20.338Z,3.90
2023-01-17T12:28:15.503Z,3.90
2023-01-17T12:33:37.664Z,4.10
2023-01-17T12:36:22.447Z,4.00
2023-01-17T12:41:24.992Z,4.00
2023-01-17T12:43:57.560Z,4.10
2023-01-17T12:46:33.059Z,4.10
2023-01-17T12:49:22.897Z,4.20
2023-01-17T12:51:57.459Z,4.50
2023-01-17T12:54:41.470Z,4.20
2023-01-17T12:57:23.412Z,4.20
2023-01-17T13:00:14.166Z,4.40
2023-01-17T13:02:51.035Z,4.30
2023-01-17T13:05:23.618Z,4.30
2023-01-17T13:08:19.842Z,4.30
2023-01-17T13:11:11.840Z,4.30
2023-01-17T13:13:41.244Z,4.30
2023-01-17T13:16:40.087Z,4.30
2023-01-17T13:19:25.330Z,4.40
2023-01-17T13:21:53.067Z,4.30
2023-01-17T13:24:31.489Z,4.60
2023-01-17T13:27:28.020Z,4.40
2023-01-17T13:30:18.077Z,4.50
2023-01-17T13:33:29.416Z,4.50
2023-01-17T13:36:30.636Z,4.50
2023-01-17T13:39:17.358Z,4.40
2023-01-17T13:41:54.848Z,6.70
2023-01-17T13:47:07.992Z,4.60
2023-01-17T13:49:48.551Z,4.50
2023-01-17T13:52:21.207Z,4.50
2023-01-17T13:54:49.545Z,4.50
2023-01-17T13:57:32.798Z,4.50
2023-01-17T14:00:23.098Z,4.40
2023-01-17T14:02:51.429Z,4.40
2023-01-17T14:05:31.162Z,4.50
2023-01-17T14:08:00.773Z,4.50
2023-01-17T14:12:55.700Z,4.60
2023-01-17T14:15:27.167Z,4.70
2023-01-17T14:18:04.343Z,4.80
2023-01-17T14:20:38.231Z,4.80
2023-01-17T14:23:23.743Z,4.80
2023-01-17T14:28:31.385Z,4.90
2023-01-17T14:31:00.906Z,4.70
2023-01-17T14:33:30.807Z,4.80
2023-01-17T14:36:07.539Z,5.00
2023-01-17T14:38:41.951Z,5.00
2023-01-17T14:41:13.195Z,4.90
2023-01-17T14:43:42.707Z,4.80
2023-01-17T14:46:26.854Z,4.70
2023-01-17T14:49:05.698Z,4.70
2023-01-17T14:54:14.818Z,4.70
2023-01-17T14:59:17.302Z,4.50
2023-01-17T15:02:06.016Z,4.40
2023-01-17T15:09:36.435Z,4.40
2023-01-17T15:14:38.231Z,4.30
2023-01-17T15:17:24.669Z,4.30
2023-01-17T15:19:59.198Z,4.40
2023-01-17T15:22:27.015Z,4.30
2023-01-17T15:24:54.310Z,4.30
2023-01-17T15:32:22.497Z,4.10
2023-01-17T15:34:50.977Z,4.00
2023-01-17T15:37:30.841Z,3.90
2023-01-17T15:40:18.543Z,3.80
2023-01-17T15:42:48.587Z,3.80
2023-01-17T15:45:22.046Z,3.70
2023-01-17T15:50:28.418Z,3.70
2023-01-17T15:52:58.211Z,3.80
2023-01-17T15:55:36.375Z,3.90
2023-01-17T15:58:04.090Z,3.80
2023-01-17T16:00:38.237Z,3.90
2023-01-17T16:03:26.163Z,3.70
2023-01-17T16:05:56.739Z,3.70
2023-01-17T16:08:30.541Z,3.70
2023-01-17T16:11:02.087Z,3.90
2023-01-17T16:13:30.685Z,3.90
2023-01-17T16:16:18.641Z,3.90
2023-01-17T16:18:46.528Z,3.90
2023-01-17T16:21:21.141Z,4.00
2023-01-17T16:26:15.622Z,3.90
2023-01-17T16:45:53.976Z,3.40
2023-01-17T16:48:21.477Z,3.50
2023-01-17T16:50:53.059Z,3.20
2023-01-17T16:53:24.739Z,3.40
2023-01-17T16:55:54.644Z,3.40
2023-01-17T17:03:17.824Z,3.20
2023-01-17T17:05:47.081Z,3.30
2023-01-17T17:08:15.214Z,2.40
2023-01-17T17:15:41.761Z,3.20
2023-01-17T17:18:14.674Z,3.10
2023-01-17T17:25:37.464Z,2.90
2023-01-17T17:28:05.602Z,2.80
2023-01-17T17:32:59.896Z,2.70
2023-01-17T17:42:48.237Z,2.50
2023-01-17T17:50:09.588Z,2.40
2023-01-17T18:02:26.304Z,2.20
2023-01-17T18:19:35.509Z,1.90
2023-01-17T18:26:57.763Z,2.20
2023-01-17T18:29:26.768Z,1.60
2023-01-17T18:31:54.202Z,1.50
2023-01-17T18:34:24.090Z,1.60
2023-01-17T18:36:51.498Z,1.60
2023-01-17T18:39:29.374Z,1.60
2023-01-17T18:41:56.130Z,1.60
2023-01-17T18:46:52.305Z,1.50
2023-01-17T18:51:50.268Z,1.60
2023-01-17T18:54:17.913Z,1.50
2023-01-17T18:56:44.571Z,1.50
2023-01-17T18:59:15.969Z,1.50
2023-01-17T19:04:12.940Z,1.40
2023-01-17T19:06:42.212Z,1.40
2023-01-17T19:16:33.051Z,1.00
2023-01-17T19:19:05.403Z,2.20
2023-01-17T19:28:58.697Z,1.40
2023-01-17T19:33:57.313Z,1.40
2023-01-17T19:41:40.595Z,1.30
2023-01-17T19:44:09.295Z,1.30
2023-01-17T19:46:37.141Z,1.30
2023-01-17T19:49:05.916Z,1.20
2023-01-17T19:56:28.957Z,1.30
2023-01-17T20:01:30.082Z,1.10
2023-01-17T20:06:28.753Z,1.00
2023-01-17T20:11:24.674Z,1.00
2023-01-17T20:13:54.157Z,0.80
2023-01-17T20:16:21.545Z,0.90
2023-01-17T20:21:18.286Z,0.80
2023-01-17T20:23:47.000Z,0.80
2023-01-17T20:26:19.115Z,0.80
2023-01-17T20:28:47.762Z,0.80
2023-01-17T20:31:22.678Z,0.70
2023-01-17T20:33:50.350Z,0.70
2023-01-17T20:36:18.521Z,0.70
2023-01-17T20:41:23.817Z,0.60
2023-01-17T20:43:52.769Z,0.60
2023-01-17T20:46:21.638Z,0.60
2023-01-17T20:48:51.122Z,0.60
2023-01-17T20:53:50.387Z,0.60
2023-01-17T20:58:45.411Z,0.40
2023-01-17T21:01:18.893Z,0.40
2023-01-17T21:03:47.831Z,0.40
2023-01-17T21:06:14.911Z,0.40
2023-01-17T21:08:44.204Z,0.40
2023-01-17T21:11:13.459Z,0.40
2023-01-17T21:13:40.252Z,0.40
2023-01-17T21:21:13.577Z,0.50
2023-01-17T21:23:41.788Z,0.40
2023-01-17T21:26:11.984Z,0.40
2023-01-17T21:33:47.465Z,0.50
2023-01-17T21:36:16.177Z,0.50
2023-01-17T21:46:05.012Z,0.30
2023-01-17T21:48:31.761Z,0.10
2023-01-17T21:51:09.063Z,0.20
2023-01-17T21:53:38.065Z,0.20
2023-01-17T21:56:25.995Z,-0.10
2023-01-17T21:58:56.572Z,0.00
2023-01-17T22:01:28.990Z,0.00
2023-01-17T22:04:01.014Z,0.00
2023-01-17T22:06:34.145Z,-0.10
2023-01-17T22:21:22.753Z,-0.10
2023-01-17T22:23:51.993Z,-0.10
2023-01-17T22:26:20.269Z,-0.10
2023-01-17T22:31:20.811Z,-0.20
2023-01-17T22:38:43.286Z,-0.10
2023-01-17T22:41:19.859Z,-0.10
2023-01-17T22:43:49.228Z,-1.50
2023-01-17T22:46:18.855Z,0.00
2023-01-17T22:48:46.178Z,0.30
2023-01-17T22:51:15.520Z,0.00
2023-01-17T22:53:44.121Z,0.00
2023-01-17T22:56:13.735Z,0.00
2023-01-17T22:58:48.719Z,0.00
2023-01-17T23:01:19.230Z,-0.10
2023-01-17T23:03:51.686Z,1.20
2023-01-17T23:06:27.181Z,0.00
2023-01-17T23:08:55.836Z,0.00
2023-01-17T23:11:43.865Z,1.20
2023-01-17T23:14:25.629Z,-0.20
2023-01-17T23:17:19.285Z,0.00
2023-01-17T23:19:51.321Z,-0.40
2023-01-17T23:22:29.930Z,-0.30
2023-01-17T23:25:02.376Z,-0.30
2023-01-17T23:27:59.574Z,-0.30
2023-01-17T23:30:35.323Z,-0.30
2023-01-17T23:33:07.351Z,-0.20
2023-01-17T23:35:41.247Z,-0.20
2023-01-17T23:38:33.793Z,-0.20
2023-01-17T23:41:24.909Z,-0.20
2023-01-17T23:43:53.283Z,-0.20
2023-01-17T23:53:41.397Z,-0.30
2023-01-17T23:56:17.174Z,-0.50
